Aktualne dane pomiarowe

Uwaga, wersja testowa! Automatyczne pobieranie danych za pomocą narzędzi lub skryptów to umożliwiających jest zabronione.

Dane meteo z obszaru Polski uzyskane na podstawie depesz SYNOP pobieranych co godzinę z NWS. Najedź myszką na symbol przedstawiony w tabeli, aby uzyskać informacje co do jego znaczenia. Prosimy pamiętać, że to testowa wersja strony, która jeszcze nie jest ukończona. Stworzono również jest krótki FAQ dotyczący korzystania z tej podstrony Anomalie temperatury w chwili obecnej odniesione są do okresu referencyjnego 1951-2016. Okres ten będzie później zmieniony na 1981-2010. Kliknij ikonę aby pobrać plik CSV. Kliknij ikonę aby wygenerować mapę synoptyczną dla danego terminu.

Wybierz Datę:    

        

Racibórz (12540)

Dane terminowe dla wybranej stacji. Kliknij datę, aby otrzymać dane z tego terminu dla wszystkich stacji.

TemperaturaZachmurzenieWiatrCiśnienieOpadyPogoda
 Data t td wb tx tn tg rh  Nt Nl Cl Cm Ch ws wd g1 g2 wx mslp ppp ch 24h 12h t ww ww w1 w2  
2019-06-30 23:00:00 19.1 13.9 15.7--- 7250.0wx-2wx--21015.0 990.8 0.1---------
2019-06-30 22:00:00 19.8 13.5 15.7--- 6740.0wx-wx2wx--21014.8 990.7 0.2---------
2019-06-30 21:00:00 21.0 14.2 16.6--- 6540.0wx-wx0---01014.8 990.8 0.2---------
2019-06-30 20:00:00 23.4 12.7 16.8--- 5150.0wx-wx1wx---1014.5 990.7 0.2---------
2019-06-30 19:00:00 26.5 12.2 17.8--- 4150.0wx-wx3wx--31014.1 990.5 -0.3---------
2019-06-30 18:00:00 29.9 10.4 18.3 34.1 21.6- 3040.0wx-wx6wx-1161013.9 990.6 -0.4- 0.012------
2019-06-30 17:00:00 31.6 9.8 18.6--- 2635.0wx-wx7wx--71013.7 990.5 -0.9---------
2019-06-30 16:00:00 32.8 10.8 19.5--- 2645.0wx-7wx-1171013.9 990.8 -1.2---------
2019-06-30 15:00:00 33.4 10.1 19.4--- 2440.0wx-7wx--71014.0 991.0 -1.7---------
2019-06-30 14:00:00 33.6 8.9 18.9--- 2245.0wx-6wx--61014.4 991.4 -1.9---------
2019-06-30 13:00:00 33.2 9.9 19.2--- 2440.0wx-5wx--51015.1 992.0 -1.9---------
2019-06-30 12:00:00 32.3 9.8 18.9--- 2540.0wx-6wx-1061015.9 992.7 -1.7- 0.06------
2019-06-30 11:00:00 31.8 9.9 18.8--- 2635.0wx-5wx-1051016.5 993.3 -1.4---------
2019-06-30 10:00:00 31.0 9.8 18.4--- 2735.0wx-6wx--61017.2 993.9 -0.9---------
2019-06-30 09:00:00 29.3 10.4 18.1--- 3135.0wx-5wx-1051017.8 994.4 -0.8---------
2019-06-30 08:00:00 27.8 11.4 17.9--- 3640.0wx-6wx-1061018.3 994.7 -0.3---------
2019-06-30 07:00:00 25.9 10.9 17.0--- 3940.0wx-5wx--51018.5 994.8 0.2---------
2019-06-30 06:00:00 21.6 14.3 16.9 25.9 13.0 11 6327.0wx-2wx--21019.3 995.2 0.5- 0.012----- 14.4
2019-06-30 05:00:00 18.1 13.8 15.2--- 7617.0wx-3wx--31019.4 995.0 0.2---------
2019-06-30 04:00:00 15.9 13.6 14.3--- 8616.0wx-2wx---1019.1 994.6 -0.6---------
2019-06-30 03:00:00 13.1 10.8 11.5--- 8620.0wx-1wx--11019.5 994.7 -0.8---------
2019-06-30 02:00:00 15.0 11.9 12.9--- 8218.0wx-2wx--21019.4 994.8 -0.7---------
2019-06-30 01:00:00 14.6 11.4 12.5--- 8127.0wx-1wx--11019.9 995.2 -0.3---------
2019-06-30 00:00:00 15.4 12.3 13.3--- 8230.0wx-1wx---1020.1 995.5 0.0---------
2019-06-29 23:00:00 15.9 12.3 13.5--- 7930.0wx-2wx---1020.1 995.5 0.2---------
2019-06-29 22:00:00 17.3 12.2 14.0--- 7230.0wx-1wx---1019.9 995.5 0.4---------
2019-06-29 21:00:00 17.3 13.4 14.7--- 7819.0wx-wx1wx---1019.9 995.5 0.4---------
2019-06-29 20:00:00 18.0 12.9 14.7--- 7229.0wx-wx3wx--31019.7 995.3 0.1---------
2019-06-29 19:00:00 21.0 13.7 16.3--- 6316.0wx-wx2wx--21019.2 995.1 -0.2---------
2019-06-29 18:00:00 25.9 11.6 17.3 28.2 18.9- 4145.0wx-wx2wx-921018.8 995.1 -0.6- 0.012------
2019-06-29 17:00:00 27.2 9.1 16.7--- 3227.0wx-wx4wx---1018.8 995.2 -0.7---------
2019-06-29 16:00:00 27.8 8.1 16.5--- 2929.0wx-wx4wx---1018.9 995.3 -1.0---------
2019-06-29 15:00:00 27.6 8.0 16.4--- 2930.0wx-wx4wx-941019.3 995.7 -1.2---------
2019-06-29 14:00:00 27.3 9.2 16.8--- 3235.0wxwxwxwx3wx---1019.5 995.9 -1.6---------
2019-06-29 13:00:00 26.5 9.4 16.5--- 3435.0wxwxwxwx2wx---1020.0 996.3 -1.6---------
2019-06-29 12:00:00 25.9 10.9 17.0--- 3935.0wxwxwxwx3wx--31020.7 996.9 -1.1- 0.06------
2019-06-29 11:00:00 24.8 9.5 15.9--- 3835.0wxwxwxwx3wx--31021.4 997.5 -0.7---------
2019-06-29 10:00:00 24.3 9.5 15.7--- 3935.0wxwxwxwx3wx--31021.8 997.9 -0.5---------
2019-06-29 09:00:00 22.8 10.6 15.5--- 4635.0wxwxwxwx2wx--21022.0 998.0 -0.7---------
2019-06-29 08:00:00 21.6 10.4 14.9--- 4935.0wxwxwxwx2wx--21022.4 998.2 -0.3---------
2019-06-29 07:00:00 20.2 10.0 14.1--- 5230.0wx-wx3wx--31022.7 998.4 -0.2---------
2019-06-29 06:00:00 18.9 10.5 13.8 21.2 11.7 11 5822.0wx-wx1wx--11023.1 998.7 0.2- 0.012----- 10.1
2019-06-29 05:00:00 16.7 12.0 13.6--- 7426.0wx-wx0---01023.1 998.5 0.1---------
2019-06-29 04:00:00 11.9 10.0 10.6--- 8824.0wx-wxwx1wx--11023.6 998.6 0.6---------
2019-06-29 03:00:00 11.7 9.4 10.2--- 8629.0wxwxwxwx3wx--31023.5 998.5 0.4---------
2019-06-29 02:00:00 13.6 10.6 11.6--- 8235.0wxwxwx2wx--21023.2 998.4 0.6---------
2019-06-29 01:00:00 13.6 10.4 11.5--- 8128.0wxwxwx1wx--11022.8 998.0 0.2---------
2019-06-29 00:00:00 14.3 9.9 11.5--- 7540.0wxwxwxwx2wx--21022.9 998.1 0.3- 0.06------
10.2 ms

 

Print Friendly, PDF & Email